Terminal Aerodrome Forecast
Issued by NWS

Home | Current Version | Previous Version | Text Only | Print | Product List | Glossary On
Versions: 1 2 3 4 5 6 7 8 9 10 11 12 13
887
FTUS41 KPBZ 242350
TAFAGC
TAF
KAGC 242350Z 2500/2524 18005KT P6SM SKC
     FM250300 19006KT P6SM FEW250 WS020/22035KT
     FM251700 24010G17KT P6SM OVC020
     FM252100 26009KT P6SM BKN015
     FM252200 27009KT P6SM BKN020=

USA.gov is the U.S. government's official web portal to all federal, state and local government web resources and services.